Terminal Aerodrome Forecast
Issued by NWS

Home | Current Version | Previous Version | Text Only | Print | Product List | Glossary On
Versions: 1 2 3 4 5 6 7 8 9 10 11 12 13 14 15 16 17 18
000
FTUS43 KGRB 051523 AAA
TAFAUW
TAF AMD
KAUW 051523Z 0515/0612 18003KT 6SM BR SCT006 BKN015
      TEMPO 0515/0516 2SM BR BKN006
     FM051600 16005KT P6SM BKN020
     FM051800 19008KT P6SM BKN030
     FM052200 18006KT P6SM SCT030
     FM060600 VRB03KT 5SM BR BKN150=

USA.gov is the U.S. government's official web portal to all federal, state and local government web resources and services.